createdAt,value
2022-09-22T00:01:40.283Z,9.29
2022-09-22T00:06:47.337Z,8.97
2022-09-22T00:11:54.024Z,8.98
2022-09-22T00:16:58.649Z,9.18
2022-09-22T00:22:01.045Z,9.02
2022-09-22T00:27:05.112Z,8.99
2022-09-22T00:32:07.841Z,9.02
2022-09-22T00:37:10.379Z,9.12
2022-09-22T00:42:14.466Z,8.97
2022-09-22T00:47:28.129Z,8.73
2022-09-22T00:52:34.357Z,9.01
2022-09-22T00:57:40.465Z,9.12
2022-09-22T01:02:43.312Z,8.98
2022-09-22T01:07:47.607Z,8.94
2022-09-22T01:13:02.709Z,8.60
2022-09-22T01:18:16.461Z,8.79
2022-09-22T01:23:42.537Z,8.71
2022-09-22T01:29:18.586Z,8.76
2022-09-22T01:34:30.028Z,8.72
2022-09-22T01:39:39.880Z,8.57
2022-09-22T01:44:49.225Z,8.56
2022-09-22T01:49:57.694Z,8.72
2022-09-22T01:55:04.942Z,8.35
2022-09-22T02:00:10.088Z,8.38
2022-09-22T02:05:19.470Z,8.21
2022-09-22T02:10:29.209Z,8.42
2022-09-22T02:15:49.833Z,8.26
2022-09-22T02:20:53.811Z,8.22
2022-09-22T02:25:56.755Z,8.25
2022-09-22T02:31:19.627Z,8.20
2022-09-22T02:36:51.823Z,8.30
2022-09-22T02:42:07.546Z,8.20
2022-09-22T02:47:15.034Z,8.08
2022-09-22T02:52:21.071Z,7.89
2022-09-22T02:57:23.992Z,8.00
2022-09-22T03:02:26.751Z,7.84
2022-09-22T03:07:30.680Z,7.81
2022-09-22T03:12:33.173Z,7.98
2022-09-22T03:17:35.664Z,8.26
2022-09-22T03:22:40.513Z,8.12
2022-09-22T03:27:43.214Z,8.09
2022-09-22T03:32:48.508Z,8.09
2022-09-22T03:37:52.339Z,8.27
2022-09-22T03:42:54.978Z,8.49
2022-09-22T03:47:59.031Z,8.29
2022-09-22T03:53:02.813Z,8.40
2022-09-22T03:58:05.277Z,8.32
2022-09-22T04:03:08.856Z,8.15
2022-09-22T04:08:12.789Z,8.03
2022-09-22T04:13:15.924Z,8.01
2022-09-22T04:18:18.445Z,7.89
2022-09-22T04:23:22.264Z,7.67
2022-09-22T04:28:25.074Z,7.12
2022-09-22T04:33:28.071Z,7.34
2022-09-22T04:38:31.889Z,7.43
2022-09-22T04:43:34.361Z,7.33
2022-09-22T04:48:37.154Z,7.52
2022-09-22T04:53:40.954Z,7.68
2022-09-22T04:58:43.411Z,7.70
2022-09-22T05:03:46.108Z,7.72
2022-09-22T05:08:49.905Z,7.63
2022-09-22T05:14:00.199Z,7.69
2022-09-22T05:19:02.682Z,7.80
2022-09-22T05:24:06.994Z,7.71
2022-09-22T05:29:09.989Z,7.96
2022-09-22T05:34:12.628Z,7.85
2022-09-22T05:39:16.709Z,8.02
2022-09-22T05:44:19.555Z,8.16
2022-09-22T05:49:22.020Z,7.35
2022-09-22T05:54:26.119Z,7.99
2022-09-22T05:59:28.577Z,7.45
2022-09-22T06:04:31.232Z,7.87
2022-09-22T06:09:35.016Z,7.96
2022-09-22T06:14:37.762Z,8.34
2022-09-22T06:19:41.560Z,8.61
2022-09-22T06:24:45.891Z,8.65
2022-09-22T06:29:48.684Z,9.05
2022-09-22T06:34:51.494Z,9.06
2022-09-22T06:39:55.424Z,9.38
2022-09-22T06:44:57.880Z,9.71
2022-09-22T06:50:02.300Z,9.82
2022-09-22T06:55:07.260Z,10.06
2022-09-22T07:00:11.282Z,10.14
2022-09-22T07:05:18.609Z,10.19
2022-09-22T07:10:22.364Z,10.61
2022-09-22T07:15:24.768Z,10.96
2022-09-22T07:20:28.956Z,10.89
2022-09-22T07:25:35.907Z,10.75
2022-09-22T07:30:40.228Z,10.72
2022-09-22T07:35:42.767Z,11.00
2022-09-22T07:40:54.784Z,11.04
2022-09-22T07:45:58.327Z,11.46
2022-09-22T07:51:00.752Z,10.82
2022-09-22T07:56:06.208Z,11.14
2022-09-22T08:01:09.929Z,11.34
2022-09-22T08:06:13.464Z,10.72
2022-09-22T08:11:19.064Z,11.94
2022-09-22T08:16:22.597Z,12.52
2022-09-22T08:21:25.994Z,12.77
2022-09-22T08:26:29.851Z,12.87
2022-09-22T08:31:33.276Z,12.60
2022-09-22T08:36:37.753Z,13.38
2022-09-22T08:41:47.021Z,14.05
2022-09-22T08:46:51.308Z,15.03
2022-09-22T08:51:58.831Z,15.19
2022-09-22T08:57:15.590Z,15.43
2022-09-22T09:02:36.326Z,15.03
2022-09-22T09:07:48.389Z,16.22
2022-09-22T09:13:09.077Z,15.34
2022-09-22T09:18:15.686Z,16.14
2022-09-22T09:23:20.156Z,16.31
2022-09-22T09:28:33.774Z,16.03
2022-09-22T09:33:43.740Z,14.56
2022-09-22T09:38:51.854Z,15.70
2022-09-22T09:43:57.682Z,15.78
2022-09-22T09:49:08.132Z,16.66
2022-09-22T09:54:16.971Z,15.80
2022-09-22T09:59:45.415Z,16.53
2022-09-22T10:04:52.889Z,16.83
2022-09-22T10:09:57.084Z,16.95
2022-09-22T10:15:02.480Z,17.29
2022-09-22T10:20:20.359Z,18.34
2022-09-22T10:25:24.970Z,21.46
2022-09-22T10:30:37.229Z,22.74
2022-09-22T10:35:41.185Z,28.28
2022-09-22T10:40:48.755Z,27.61
2022-09-22T10:46:12.822Z,31.40
2022-09-22T10:51:27.217Z,27.95
2022-09-22T10:56:37.578Z,26.47
2022-09-22T11:01:57.040Z,23.71
2022-09-22T11:07:32.715Z,24.65
2022-09-22T11:12:49.497Z,22.55
2022-09-22T11:18:08.102Z,25.74
2022-09-22T11:23:47.376Z,27.87
2022-09-22T11:29:07.641Z,25.36
2022-09-22T11:34:42.993Z,23.35
2022-09-22T11:39:52.994Z,22.35
2022-09-22T11:45:06.185Z,20.98
2022-09-22T11:50:25.532Z,20.92
2022-09-22T11:55:37.456Z,19.61
2022-09-22T12:00:45.658Z,22.90
2022-09-22T12:05:54.364Z,28.13
2022-09-22T12:10:57.395Z,31.76
2022-09-22T12:21:24.376Z,35.16
2022-09-22T12:26:30.910Z,34.58
2022-09-22T12:31:36.206Z,35.23
2022-09-22T12:36:41.285Z,30.44
2022-09-22T12:41:48.068Z,27.08
2022-09-22T12:46:51.592Z,22.73
2022-09-22T12:51:55.327Z,22.56
2022-09-22T12:57:00.379Z,21.90
2022-09-22T13:02:27.412Z,21.99
2022-09-22T13:07:37.410Z,20.24
2022-09-22T13:12:39.939Z,19.45
2022-09-22T13:17:44.624Z,19.59
2022-09-22T13:22:48.726Z,18.78
2022-09-22T13:28:06.568Z,19.01
2022-09-22T13:33:19.808Z,17.95
2022-09-22T13:38:24.861Z,17.83
2022-09-22T13:43:31.918Z,18.21
2022-09-22T13:48:37.287Z,18.59
2022-09-22T13:53:46.204Z,18.93
2022-09-22T13:58:51.380Z,19.01
2022-09-22T14:03:55.190Z,24.88
2022-09-22T14:09:01.605Z,26.50
2022-09-22T14:14:06.763Z,26.14
2022-09-22T14:19:24.113Z,30.71
2022-09-22T14:24:29.920Z,32.69
2022-09-22T14:29:35.374Z,34.91
2022-09-22T14:34:39.080Z,31.10
2022-09-22T14:39:46.760Z,32.49
2022-09-22T14:44:51.272Z,31.46
2022-09-22T14:50:14.340Z,30.23
2022-09-22T14:55:28.729Z,31.02
2022-09-22T15:00:49.373Z,24.51
2022-09-22T15:05:52.329Z,23.49
2022-09-22T15:10:59.324Z,22.10
2022-09-22T15:21:11.738Z,22.18
2022-09-22T15:26:22.893Z,21.26
2022-09-22T15:31:28.287Z,21.20
2022-09-22T15:36:33.310Z,21.31
2022-09-22T15:41:37.496Z,19.82
2022-09-22T15:46:41.019Z,20.41
2022-09-22T15:51:45.361Z,19.88
2022-09-22T15:56:52.268Z,19.10
2022-09-22T16:01:57.159Z,19.31
2022-09-22T16:07:03.034Z,19.27
2022-09-22T16:12:11.003Z,18.41
2022-09-22T16:17:13.628Z,17.48
2022-09-22T16:22:17.353Z,17.16
2022-09-22T16:27:21.764Z,15.98
2022-09-22T16:32:24.453Z,15.89
2022-09-22T16:37:27.198Z,16.11
2022-09-22T16:42:30.998Z,14.85
2022-09-22T16:47:33.915Z,14.86
2022-09-22T16:52:38.138Z,13.99
2022-09-22T16:57:42.469Z,13.40
2022-09-22T17:02:45.869Z,13.81
2022-09-22T17:07:49.959Z,12.77
2022-09-22T17:12:56.269Z,12.49
2022-09-22T17:17:58.882Z,12.62
2022-09-22T17:23:01.963Z,12.07
2022-09-22T17:28:06.495Z,11.84
2022-09-22T17:33:09.232Z,11.72
2022-09-22T17:38:11.810Z,11.59
2022-09-22T17:43:20.285Z,11.19
2022-09-22T17:48:40.102Z,11.03
2022-09-22T17:54:00.635Z,10.84
2022-09-22T17:59:04.906Z,10.64
2022-09-22T18:04:07.444Z,10.35
2022-09-22T18:09:09.872Z,10.49
2022-09-22T18:14:14.736Z,10.16
2022-09-22T18:19:17.387Z,10.17
2022-09-22T18:24:20.351Z,10.93
2022-09-22T18:29:25.151Z,11.85
2022-09-22T18:34:31.804Z,11.65
2022-09-22T18:39:35.240Z,11.68
2022-09-22T18:44:39.969Z,11.71
2022-09-22T18:49:43.075Z,11.57
2022-09-22T18:54:46.678Z,11.29
2022-09-22T18:59:51.025Z,10.45
2022-09-22T19:04:53.965Z,10.68
2022-09-22T19:09:56.545Z,9.64
2022-09-22T19:15:01.374Z,10.85
2022-09-22T19:20:04.216Z,9.90
2022-09-22T19:25:07.520Z,9.33
2022-09-22T19:30:13.261Z,8.88
2022-09-22T19:35:17.174Z,9.94
2022-09-22T19:40:20.432Z,9.41
2022-09-22T19:45:27.389Z,9.10
2022-09-22T19:50:30.175Z,8.91
2022-09-22T19:55:33.162Z,9.58
2022-09-22T20:00:39.829Z,9.40
2022-09-22T20:05:42.544Z,9.50
2022-09-22T20:11:16.355Z,8.97
2022-09-22T20:16:21.970Z,9.29
2022-09-22T20:21:28.885Z,9.33
2022-09-22T20:26:32.289Z,9.78
2022-09-22T20:31:36.406Z,9.72
2022-09-22T20:36:39.342Z,10.08
2022-09-22T20:41:42.290Z,10.25
2022-09-22T20:46:48.315Z,10.11
2022-09-22T20:51:51.580Z,9.70
2022-09-22T20:56:57.279Z,9.96
2022-09-22T21:02:04.088Z,8.99
2022-09-22T21:07:06.933Z,7.89
2022-09-22T21:12:10.021Z,8.43
2022-09-22T21:17:15.460Z,8.85
2022-09-22T21:22:18.106Z,8.46
2022-09-22T21:27:21.333Z,8.01
2022-09-22T21:32:25.458Z,7.20
2022-09-22T21:37:28.126Z,7.74
2022-09-22T21:42:31.457Z,7.36
2022-09-22T21:47:35.488Z,8.09
2022-09-22T21:52:38.798Z,8.14
2022-09-22T21:57:41.241Z,7.52
2022-09-22T22:03:02.615Z,7.21
2022-09-22T22:08:06.190Z,7.55
2022-09-22T22:13:09.404Z,7.20
2022-09-22T22:18:13.192Z,6.30
2022-09-22T22:23:15.593Z,6.36
2022-09-22T22:28:18.072Z,6.90
2022-09-22T22:33:22.462Z,7.91
2022-09-22T22:38:25.762Z,8.00
2022-09-22T22:43:28.217Z,6.80
2022-09-22T22:48:32.471Z,7.24
2022-09-22T22:53:36.017Z,8.20
2022-09-22T22:58:39.639Z,8.06
2022-09-22T23:03:45.941Z,6.54
2022-09-22T23:08:48.787Z,6.41
2022-09-22T23:13:54.791Z,6.60
2022-09-22T23:19:01.334Z,6.83
2022-09-22T23:24:05.111Z,7.38
2022-09-22T23:29:07.697Z,6.36
2022-09-22T23:34:11.553Z,6.43
2022-09-22T23:39:14.069Z,5.94
2022-09-22T23:44:16.841Z,5.74
2022-09-22T23:49:20.895Z,5.54
2022-09-22T23:54:23.611Z,5.65
2022-09-22T23:59:26.043Z,5.36
